Time;durP1;ratioP1;P1;durP2;ratioP2;P2;SDS_P1;SDS_P2;PMS_P1;PMS_P2;Temp;Humidity;BMP_temperature;BMP_pressure;BME280_temperature;BME280_humidity;BME280_pressure;Samples;Min_cycle;Max_cycle;Signal;HPM_P1;HPM_P2
2021/03/06 00:00:34;;;;;;;8.17;5.60;;;;;;;;;;4954238;28;20467;-63
2021/03/06 00:03:01;;;;;;;6.90;5.13;;;;;;;;;;4956164;28;20460;-63
2021/03/06 00:05:28;;;;;;;9.60;6.00;;;;;;;;;;4956450;29;20494;-63
2021/03/06 00:07:55;;;;;;;8.17;5.20;;;;;;;;;;4956309;29;20472;-64
2021/03/06 00:10:22;;;;;;;7.77;5.17;;;;;;;;;;4955959;28;20955;-63
2021/03/06 00:12:49;;;;;;;7.83;5.30;;;;;;;;;;4954989;28;20476;-63
2021/03/06 00:15:18;;;;;;;10.07;6.23;;;;;;;;;;4952502;28;20952;-63
2021/03/06 00:17:45;;;;;;;9.57;6.00;;;;;;;;;;4953068;28;20477;-62
2021/03/06 00:20:12;;;;;;;7.93;5.60;;;;;;;;;;4945848;29;20841;-63
2021/03/06 00:22:38;;;;;;;8.73;5.47;;;;;;;;;;4956484;29;20476;-63
2021/03/06 00:25:06;;;;;;;9.60;5.50;;;;;;;;;;4956100;28;20494;-63
2021/03/06 00:27:33;;;;;;;8.53;5.90;;;;;;;;;;4954299;29;20472;-63
2021/03/06 00:29:59;;;;;;;8.70;6.00;;;;;;;;;;4956586;29;20878;-63
2021/03/06 00:32:27;;;;;;;9.97;6.10;;;;;;;;;;4941329;29;20488;-63
2021/03/06 00:34:53;;;;;;;6.07;5.47;;;;;;;;;;4955099;28;20468;-63
2021/03/06 00:37:20;;;;;;;7.13;5.60;;;;;;;;;;4954716;29;20472;-63
2021/03/06 00:39:46;;;;;;;9.10;5.47;;;;;;;;;;4956824;29;20448;-63
2021/03/06 00:42:13;;;;;;;7.90;5.67;;;;;;;;;;4953982;28;20492;-63
2021/03/06 00:44:40;;;;;;;6.93;5.27;;;;;;;;;;4956118;29;20483;-63
2021/03/06 00:47:06;;;;;;;10.70;5.73;;;;;;;;;;4955263;29;20501;-63
2021/03/06 00:49:34;;;;;;;8.37;5.43;;;;;;;;;;4956390;29;20476;-63
2021/03/06 00:52:01;;;;;;;8.63;5.53;;;;;;;;;;4954992;28;20491;-63
2021/03/06 00:54:28;;;;;;;6.20;5.40;;;;;;;;;;4955546;28;20477;-62
2021/03/06 00:56:54;;;;;;;7.27;5.80;;;;;;;;;;4955308;29;20572;-63
2021/03/06 00:59:21;;;;;;;8.30;5.57;;;;;;;;;;4954443;29;20483;-63
2021/03/06 01:01:48;;;;;;;11.30;5.93;;;;;;;;;;4960707;28;20495;-63
2021/03/06 01:04:14;;;;;;;7.10;4.97;;;;;;;;;;4956487;29;20456;-63
2021/03/06 01:06:42;;;;;;;6.10;5.60;;;;;;;;;;4955720;28;20853;-64
2021/03/06 01:09:08;;;;;;;6.47;5.43;;;;;;;;;;4956597;29;20877;-63
2021/03/06 01:11:35;;;;;;;7.87;5.50;;;;;;;;;;4955707;28;20500;-63
2021/03/06 01:14:01;;;;;;;13.13;6.43;;;;;;;;;;4955285;29;20991;-64
2021/03/06 01:16:28;;;;;;;6.33;5.20;;;;;;;;;;4954617;29;20460;-64
2021/03/06 01:18:55;;;;;;;6.60;5.20;;;;;;;;;;4954538;28;20542;-64
2021/03/06 01:21:21;;;;;;;13.00;6.10;;;;;;;;;;4954083;28;21698;-63
2021/03/06 01:23:49;;;;;;;10.23;5.90;;;;;;;;;;4954953;29;20530;-64
2021/03/06 01:26:15;;;;;;;7.10;5.47;;;;;;;;;;4954117;29;20488;-63
2021/03/06 01:28:42;;;;;;;6.00;5.40;;;;;;;;;;4955535;29;20452;-64
2021/03/06 01:31:09;;;;;;;8.40;4.97;;;;;;;;;;4954378;28;21004;-64
2021/03/06 01:33:35;;;;;;;8.00;5.07;;;;;;;;;;4952047;28;20520;-64
2021/03/06 01:36:02;;;;;;;6.20;5.30;;;;;;;;;;4952959;29;20472;-63
2021/03/06 01:38:28;;;;;;;5.13;4.60;;;;;;;;;;4953515;28;20531;-64
2021/03/06 01:40:56;;;;;;;8.00;5.30;;;;;;;;;;4954703;29;20483;-63
2021/03/06 01:43:22;;;;;;;10.70;4.70;;;;;;;;;;4951673;28;20460;-63
2021/03/06 01:45:49;;;;;;;5.77;5.27;;;;;;;;;;4954490;29;20492;-63
2021/03/06 01:48:16;;;;;;;6.20;5.60;;;;;;;;;;4954350;29;20476;-63
2021/03/06 01:50:43;;;;;;;7.23;5.13;;;;;;;;;;4954239;28;20555;-64
2021/03/06 01:53:11;;;;;;;6.13;5.50;;;;;;;;;;4954629;29;20457;-63
2021/03/06 01:55:39;;;;;;;9.30;5.17;;;;;;;;;;4953644;29;21055;-64
2021/03/06 01:58:07;;;;;;;8.67;5.27;;;;;;;;;;4954024;29;20960;-64
2021/03/06 02:00:33;;;;;;;7.80;5.20;;;;;;;;;;4954477;28;20468;-63
2021/03/06 02:03:00;;;;;;;7.37;5.20;;;;;;;;;;4954256;29;20464;-64
2021/03/06 02:05:27;;;;;;;8.73;5.30;;;;;;;;;;4953294;28;20494;-63
2021/03/06 02:07:54;;;;;;;8.90;4.80;;;;;;;;;;4954009;29;20444;-63
2021/03/06 02:10:23;;;;;;;8.70;4.70;;;;;;;;;;4952076;29;20542;-64
2021/03/06 02:12:55;;;;;;;6.27;5.10;;;;;;;;;;4953362;29;20484;-64
2021/03/06 02:15:30;;;;;;;6.07;4.60;;;;;;;;;;4954154;29;20451;-64
2021/03/06 02:17:58;;;;;;;6.63;5.23;;;;;;;;;;4953330;28;20464;-63
2021/03/06 02:20:50;;;;;;;7.40;4.87;;;;;;;;;;4954313;28;20460;-63
2021/03/06 02:23:31;;;;;;;9.10;4.50;;;;;;;;;;4953737;28;20468;-63
2021/03/06 02:26:05;;;;;;;5.77;5.27;;;;;;;;;;4954296;29;20472;-63
2021/03/06 02:28:37;;;;;;;11.33;5.27;;;;;;;;;;4953101;29;20464;-63
2021/03/06 02:31:05;;;;;;;9.40;5.10;;;;;;;;;;4952815;28;21104;-63
2021/03/06 02:33:36;;;;;;;7.43;4.40;;;;;;;;;;4953022;28;20472;-63
2021/03/06 02:36:06;;;;;;;6.57;4.87;;;;;;;;;;4954112;29;20448;-63
2021/03/06 02:38:33;;;;;;;6.13;4.50;;;;;;;;;;4952946;29;20475;-63
2021/03/06 02:41:01;;;;;;;6.10;4.90;;;;;;;;;;4951015;28;20487;-63
2021/03/06 02:43:28;;;;;;;6.70;4.90;;;;;;;;;;4952585;28;20468;-63
2021/03/06 02:45:56;;;;;;;5.80;4.90;;;;;;;;;;4953543;29;20472;-64
2021/03/06 02:48:24;;;;;;;7.77;5.03;;;;;;;;;;4952894;29;20472;-64
2021/03/06 02:50:53;;;;;;;8.47;4.47;;;;;;;;;;4952566;28;20483;-63
2021/03/06 02:53:20;;;;;;;6.37;4.90;;;;;;;;;;4954132;29;20615;-63
2021/03/06 02:55:47;;;;;;;5.63;4.50;;;;;;;;;;4950111;28;20471;-64
2021/03/06 02:58:35;;;;;;;4.97;4.07;;;;;;;;;;4953842;29;20511;-64
2021/03/06 03:01:03;;;;;;;5.87;5.27;;;;;;;;;;4952709;29;20488;-63
2021/03/06 03:03:39;;;;;;;5.93;4.50;;;;;;;;;;4954201;29;20440;-63
2021/03/06 03:06:11;;;;;;;7.40;4.77;;;;;;;;;;4950695;28;20491;-64
2021/03/06 03:08:39;;;;;;;8.90;5.10;;;;;;;;;;4953325;29;20531;-63
2021/03/06 03:11:08;;;;;;;7.17;4.80;;;;;;;;;;4949028;28;20866;-63
2021/03/06 03:13:37;;;;;;;4.43;4.00;;;;;;;;;;4952212;28;20964;-64
2021/03/06 03:16:06;;;;;;;11.33;4.90;;;;;;;;;;4953076;29;20453;-64
2021/03/06 03:18:38;;;;;;;9.33;4.70;;;;;;;;;;4952270;29;20472;-64
2021/03/06 03:21:06;;;;;;;4.63;3.97;;;;;;;;;;4952454;28;20495;-63
2021/03/06 03:23:35;;;;;;;8.97;4.33;;;;;;;;;;4952932;29;20469;-65
2021/03/06 03:26:03;;;;;;;4.47;4.13;;;;;;;;;;4952019;29;20487;-65
2021/03/06 03:28:31;;;;;;;7.13;4.03;;;;;;;;;;4953092;29;20473;-65
2021/03/06 03:30:59;;;;;;;5.40;4.90;;;;;;;;;;4951574;28;21238;-64
2021/03/06 03:33:26;;;;;;;9.53;4.60;;;;;;;;;;4953874;29;20448;-65
2021/03/06 03:35:54;;;;;;;6.87;4.40;;;;;;;;;;4950817;28;20461;-65
2021/03/06 03:38:22;;;;;;;6.10;3.90;;;;;;;;;;4952469;29;20845;-65
2021/03/06 03:40:49;;;;;;;4.47;3.70;;;;;;;;;;4951943;28;20488;-65
2021/03/06 03:43:16;;;;;;;8.10;4.40;;;;;;;;;;4952795;29;20484;-65
2021/03/06 03:45:43;;;;;;;4.70;4.10;;;;;;;;;;4957313;29;20999;-65
2021/03/06 03:48:11;;;;;;;15.90;4.73;;;;;;;;;;4953592;29;20448;-65
2021/03/06 03:50:37;;;;;;;5.70;4.33;;;;;;;;;;4950783;28;20479;-64
2021/03/06 03:53:05;;;;;;;5.37;3.90;;;;;;;;;;4952226;29;20468;-64
2021/03/06 03:55:32;;;;;;;6.10;4.73;;;;;;;;;;4951999;29;20453;-65
2021/03/06 03:57:59;;;;;;;5.37;3.80;;;;;;;;;;4953176;29;20448;-64
2021/03/06 04:00:26;;;;;;;8.80;4.70;;;;;;;;;;4950872;29;20456;-62
2021/03/06 04:02:52;;;;;;;7.50;3.90;;;;;;;;;;4946804;29;21179;-65
2021/03/06 04:05:19;;;;;;;8.43;4.20;;;;;;;;;;4952335;29;20484;-65
2021/03/06 04:07:47;;;;;;;9.90;4.30;;;;;;;;;;4934195;29;20456;-65
2021/03/06 04:10:15;;;;;;;8.10;4.40;;;;;;;;;;4952889;28;20463;-66
2021/03/06 04:12:42;;;;;;;5.80;3.90;;;;;;;;;;4951931;28;20499;-66
2021/03/06 04:15:10;;;;;;;11.60;4.60;;;;;;;;;;4952780;29;20889;-64
2021/03/06 04:17:36;;;;;;;5.07;4.00;;;;;;;;;;4951710;29;20968;-65
2021/03/06 04:20:04;;;;;;;7.07;4.50;;;;;;;;;;4952030;29;20468;-65
2021/03/06 04:22:30;;;;;;;10.50;4.07;;;;;;;;;;4952684;28;20464;-65
2021/03/06 04:24:57;;;;;;;5.23;3.53;;;;;;;;;;4952718;29;20464;-65
2021/03/06 04:27:24;;;;;;;6.63;4.53;;;;;;;;;;4951691;29;20475;-65
2021/03/06 04:29:51;;;;;;;8.33;4.70;;;;;;;;;;4952413;29;20467;-66
2021/03/06 04:32:18;;;;;;;7.90;5.00;;;;;;;;;;4951956;28;20492;-65
2021/03/06 04:34:44;;;;;;;6.60;5.50;;;;;;;;;;4951409;29;20527;-62
2021/03/06 04:37:11;;;;;;;6.93;5.07;;;;;;;;;;4953332;28;20456;-66
2021/03/06 04:39:38;;;;;;;9.70;4.83;;;;;;;;;;4953738;29;20507;-65
2021/03/06 04:42:04;;;;;;;6.00;4.80;;;;;;;;;;4952106;28;20488;-65
2021/03/06 04:44:32;;;;;;;7.57;5.20;;;;;;;;;;4955354;29;20471;-66
2021/03/06 04:46:58;;;;;;;7.63;5.27;;;;;;;;;;4955212;29;20859;-66
2021/03/06 04:49:25;;;;;;;12.40;5.30;;;;;;;;;;4954104;29;20471;-63
2021/03/06 04:51:52;;;;;;;5.07;4.60;;;;;;;;;;4956007;28;20472;-63
2021/03/06 04:54:18;;;;;;;9.43;6.47;;;;;;;;;;4955016;29;20468;-63
2021/03/06 04:56:45;;;;;;;11.43;6.13;;;;;;;;;;4955922;29;20447;-63
2021/03/06 04:59:11;;;;;;;9.53;6.37;;;;;;;;;;4954881;29;20483;-63
2021/03/06 05:01:39;;;;;;;9.60;6.77;;;;;;;;;;4954924;28;20854;-63
2021/03/06 05:04:05;;;;;;;6.90;6.20;;;;;;;;;;4953272;28;20468;-63
2021/03/06 05:06:32;;;;;;;8.57;7.87;;;;;;;;;;4955901;29;20495;-63
2021/03/06 05:08:58;;;;;;;9.13;7.93;;;;;;;;;;4954397;28;20467;-63
2021/03/06 05:11:25;;;;;;;10.10;8.20;;;;;;;;;;4955612;28;20835;-62
2021/03/06 05:13:52;;;;;;;9.43;8.43;;;;;;;;;;4953664;29;20464;-63
2021/03/06 05:16:18;;;;;;;10.37;9.47;;;;;;;;;;4954794;29;20839;-65
2021/03/06 05:18:46;;;;;;;11.37;10.17;;;;;;;;;;4954673;29;20472;-63
2021/03/06 05:21:12;;;;;;;11.27;10.23;;;;;;;;;;4955058;28;20487;-65
2021/03/06 05:23:39;;;;;;;11.63;10.47;;;;;;;;;;4954659;29;20479;-66
2021/03/06 05:26:05;;;;;;;15.70;11.13;;;;;;;;;;4955166;29;20496;-62
2021/03/06 05:28:32;;;;;;;15.83;12.40;;;;;;;;;;4952921;28;20982;-62
2021/03/06 05:30:59;;;;;;;13.20;11.70;;;;;;;;;;4954461;29;20617;-64
2021/03/06 05:33:25;;;;;;;15.50;12.47;;;;;;;;;;4955534;29;20480;-63
2021/03/06 05:35:53;;;;;;;14.03;12.63;;;;;;;;;;4953370;29;20983;-63
2021/03/06 05:38:19;;;;;;;16.03;14.33;;;;;;;;;;4955401;29;20453;-63
2021/03/06 05:40:47;;;;;;;14.03;12.63;;;;;;;;;;4954228;28;20496;-62
2021/03/06 05:43:14;;;;;;;21.77;13.43;;;;;;;;;;4955697;28;20469;-62
2021/03/06 05:45:45;;;;;;;12.90;11.60;;;;;;;;;;4954892;29;20518;-63
2021/03/06 05:48:11;;;;;;;13.30;12.00;;;;;;;;;;4954287;28;20491;-64
2021/03/06 05:50:38;;;;;;;15.60;13.90;;;;;;;;;;4953370;28;20475;-64
2021/03/06 05:53:07;;;;;;;14.53;12.60;;;;;;;;;;4953435;28;21062;-68
2021/03/06 05:55:33;;;;;;;18.53;13.43;;;;;;;;;;4954424;29;20951;-64
2021/03/06 05:58:01;;;;;;;14.60;11.43;;;;;;;;;;4953188;28;20476;-62
2021/03/06 06:00:28;;;;;;;13.00;11.80;;;;;;;;;;4954504;28;20963;-62
2021/03/06 06:02:56;;;;;;;12.90;11.73;;;;;;;;;;4953847;29;20456;-62
2021/03/06 06:05:23;;;;;;;12.90;11.60;;;;;;;;;;4953805;29;20491;-64
2021/03/06 06:07:50;;;;;;;14.93;12.20;;;;;;;;;;4953346;28;20456;-62
2021/03/06 06:10:18;;;;;;;12.57;10.87;;;;;;;;;;4954018;28;20978;-62
2021/03/06 06:12:45;;;;;;;13.90;11.90;;;;;;;;;;4953084;28;20503;-62
2021/03/06 06:15:12;;;;;;;13.40;10.90;;;;;;;;;;4953966;28;20555;-65
2021/03/06 06:17:39;;;;;;;13.13;11.20;;;;;;;;;;4953715;28;20472;-62
2021/03/06 06:20:06;;;;;;;11.60;9.47;;;;;;;;;;4954078;28;20592;-65
2021/03/06 06:22:33;;;;;;;11.93;10.60;;;;;;;;;;4953176;28;20542;-62
2021/03/06 06:24:59;;;;;;;10.50;9.50;;;;;;;;;;4954890;29;20499;-62
2021/03/06 06:27:28;;;;;;;9.30;4.20;;;;;;;;;;4952229;28;20527;-64
2021/03/06 06:29:56;;;;;;;8.37;4.10;;;;;;;;;;4953500;29;20515;-64
2021/03/06 06:32:23;;;;;;;8.00;3.40;;;;;;;;;;4952620;28;20520;-66
2021/03/06 06:35:00;;;;;;;7.43;3.30;;;;;;;;;;4953218;29;20468;-65
2021/03/06 06:37:29;;;;;;;6.60;3.47;;;;;;;;;;4954066;29;20463;-65
2021/03/06 06:39:55;;;;;;;5.13;3.40;;;;;;;;;;4953069;29;20476;-64
2021/03/06 06:42:30;;;;;;;3.43;2.87;;;;;;;;;;4953643;28;20559;-64
2021/03/06 06:44:57;;;;;;;4.13;3.17;;;;;;;;;;4951750;28;20472;-66
2021/03/06 06:47:24;;;;;;;4.00;2.80;;;;;;;;;;4953047;28;20452;-65
2021/03/06 06:49:51;;;;;;;4.80;2.37;;;;;;;;;;4953667;29;20656;-66
2021/03/06 06:52:19;;;;;;;4.67;2.67;;;;;;;;;;4952188;28;21058;-64
2021/03/06 06:54:52;;;;;;;3.70;2.10;;;;;;;;;;4953356;29;20452;-66
2021/03/06 06:57:19;;;;;;;4.37;2.10;;;;;;;;;;4951833;29;20523;-65
2021/03/06 06:59:53;;;;;;;2.20;1.47;;;;;;;;;;4952588;29;20816;-65
2021/03/06 07:02:20;;;;;;;4.33;1.57;;;;;;;;;;4953932;29;20467;-64
2021/03/06 07:04:47;;;;;;;4.13;2.03;;;;;;;;;;4951883;28;20546;-67
2021/03/06 07:07:15;;;;;;;3.33;2.40;;;;;;;;;;4952287;29;20917;-65
2021/03/06 07:09:58;;;;;;;5.37;1.60;;;;;;;;;;4953162;29;20474;-67
2021/03/06 07:12:25;;;;;;;3.70;2.07;;;;;;;;;;4981551;23;20494;-62
2021/03/06 07:14:52;;;;;;;2.93;2.10;;;;;;;;;;4987472;28;20462;-59
2021/03/06 07:17:19;;;;;;;2.20;1.40;;;;;;;;;;4990334;28;20466;-59
2021/03/06 07:19:46;;;;;;;3.10;1.83;;;;;;;;;;4991069;28;20601;-60
2021/03/06 07:22:13;;;;;;;3.63;1.93;;;;;;;;;;4985862;28;20497;-59
2021/03/06 07:24:40;;;;;;;4.90;2.00;;;;;;;;;;4972863;28;20946;-61
2021/03/06 07:27:07;;;;;;;3.30;1.50;;;;;;;;;;4970178;28;20916;-59
2021/03/06 07:29:34;;;;;;;5.73;1.90;;;;;;;;;;4970664;28;20459;-60
2021/03/06 07:32:01;;;;;;;3.27;1.80;;;;;;;;;;4972822;28;21004;-59
2021/03/06 07:34:29;;;;;;;4.17;1.80;;;;;;;;;;4971462;28;20471;-61
2021/03/06 07:36:59;;;;;;;3.00;1.47;;;;;;;;;;4973560;28;20447;-59
2021/03/06 07:39:27;;;;;;;3.27;1.80;;;;;;;;;;4972189;28;20808;-61
2021/03/06 07:41:54;;;;;;;3.10;1.73;;;;;;;;;;4970611;28;20468;-60
2021/03/06 07:44:23;;;;;;;6.77;2.00;;;;;;;;;;4972858;28;20451;-58
2021/03/06 07:46:51;;;;;;;5.93;1.97;;;;;;;;;;4970886;28;20484;-60
2021/03/06 07:49:18;;;;;;;3.20;1.70;;;;;;;;;;4972726;28;20526;-58
2021/03/06 07:51:46;;;;;;;3.60;1.50;;;;;;;;;;4971607;28;20459;-59
2021/03/06 07:54:14;;;;;;;3.10;1.33;;;;;;;;;;4971766;28;20490;-62
2021/03/06 07:56:41;;;;;;;3.50;1.63;;;;;;;;;;4972316;28;20538;-59
2021/03/06 07:59:07;;;;;;;3.80;1.93;;;;;;;;;;4972441;28;20468;-58
2021/03/06 08:01:35;;;;;;;4.30;2.17;;;;;;;;;;4972115;28;20465;-61
2021/03/06 08:04:03;;;;;;;4.30;1.97;;;;;;;;;;4971593;28;20701;-58
2021/03/06 08:06:29;;;;;;;4.47;2.20;;;;;;;;;;4971678;28;20596;-58
2021/03/06 08:09:07;;;;;;;5.23;2.30;;;;;;;;;;4972387;28;20456;-59
2021/03/06 08:11:39;;;;;;;2.80;1.73;;;;;;;;;;4978945;28;20454;-59
2021/03/06 08:14:06;;;;;;;4.40;2.70;;;;;;;;;;4982665;28;20467;-58
2021/03/06 08:16:33;;;;;;;6.03;2.20;;;;;;;;;;4973142;28;20450;-60
2021/03/06 08:19:01;;;;;;;4.10;1.97;;;;;;;;;;4976002;28;20543;-58
2021/03/06 08:21:27;;;;;;;6.47;4.13;;;;;;;;;;4975735;28;20455;-59
2021/03/06 08:24:09;;;;;;;9.90;5.73;;;;;;;;;;4974962;28;20471;-61
2021/03/06 08:26:36;;;;;;;9.67;6.73;;;;;;;;;;4975477;28;20540;-62
2021/03/06 08:29:22;;;;;;;13.30;6.53;;;;;;;;;;4975958;28;20459;-61
2021/03/06 08:31:54;;;;;;;10.50;7.30;;;;;;;;;;4975783;28;20483;-61
2021/03/06 08:34:28;;;;;;;10.17;7.47;;;;;;;;;;4975851;28;20470;-62
2021/03/06 08:37:09;;;;;;;12.33;7.30;;;;;;;;;;4975497;28;20460;-61
2021/03/06 08:39:36;;;;;;;13.00;8.20;;;;;;;;;;4973337;28;20491;-61
2021/03/06 08:42:03;;;;;;;11.77;7.63;;;;;;;;;;4994925;28;20470;-61
2021/03/06 08:44:30;;;;;;;10.53;8.10;;;;;;;;;;4975303;28;20593;-61
2021/03/06 08:46:57;;;;;;;14.77;7.57;;;;;;;;;;4975053;28;20542;-61
2021/03/06 08:49:24;;;;;;;12.77;7.30;;;;;;;;;;4977368;28;20526;-61
2021/03/06 08:51:51;;;;;;;10.80;6.80;;;;;;;;;;4974178;28;20451;-62
2021/03/06 08:54:18;;;;;;;9.60;6.97;;;;;;;;;;4978570;28;20578;-62
2021/03/06 08:56:44;;;;;;;8.13;6.87;;;;;;;;;;4974972;28;20451;-62
2021/03/06 08:59:12;;;;;;;9.83;7.00;;;;;;;;;;4975231;28;20474;-61
2021/03/06 09:01:39;;;;;;;12.57;7.40;;;;;;;;;;4975499;28;20477;-61
2021/03/06 09:04:05;;;;;;;14.87;8.10;;;;;;;;;;4974598;28;20502;-62
2021/03/06 09:06:35;;;;;;;11.17;7.60;;;;;;;;;;4975656;28;20997;-61
2021/03/06 09:09:02;;;;;;;10.73;6.87;;;;;;;;;;4979551;28;20506;-63
2021/03/06 09:11:29;;;;;;;6.80;6.03;;;;;;;;;;4977147;28;20459;-61
2021/03/06 09:13:55;;;;;;;9.80;7.50;;;;;;;;;;4974455;28;20498;-60
2021/03/06 09:16:23;;;;;;;12.63;7.60;;;;;;;;;;4974382;28;20452;-62
2021/03/06 09:18:50;;;;;;;11.90;8.77;;;;;;;;;;4966711;28;20452;-61
2021/03/06 09:21:20;;;;;;;9.47;8.57;;;;;;;;;;4977509;28;20464;-61
2021/03/06 09:23:47;;;;;;;11.20;8.30;;;;;;;;;;4974234;28;21282;-62
2021/03/06 09:26:16;;;;;;;8.17;7.37;;;;;;;;;;4974474;28;20990;-61
2021/03/06 09:28:43;;;;;;;8.80;7.70;;;;;;;;;;4973533;28;20467;-61
2021/03/06 09:31:12;;;;;;;8.17;7.47;;;;;;;;;;4975894;28;21140;-61
2021/03/06 09:33:40;;;;;;;8.43;7.63;;;;;;;;;;4975282;28;20990;-61
2021/03/06 09:36:08;;;;;;;8.27;7.57;;;;;;;;;;4977289;28;20554;-61
2021/03/06 09:38:35;;;;;;;9.83;8.83;;;;;;;;;;4980487;28;20526;-61
2021/03/06 09:41:02;;;;;;;8.77;7.87;;;;;;;;;;4995209;28;20469;-62
2021/03/06 09:43:32;;;;;;;6.03;5.53;;;;;;;;;;4994788;28;20827;-62
2021/03/06 09:46:00;;;;;;;8.53;6.53;;;;;;;;;;4994645;28;20489;-61
2021/03/06 09:48:27;;;;;;;6.53;5.60;;;;;;;;;;4994880;28;20450;-62
2021/03/06 09:51:06;;;;;;;7.00;6.23;;;;;;;;;;4991047;28;20451;-63
2021/03/06 09:53:33;;;;;;;8.03;7.27;;;;;;;;;;4982196;28;20470;-63
2021/03/06 09:56:04;;;;;;;7.50;6.80;;;;;;;;;;4979035;28;20788;-63
2021/03/06 09:58:31;;;;;;;7.50;6.43;;;;;;;;;;4984794;28;20455;-63
2021/03/06 10:01:26;;;;;;;8.10;7.10;;;;;;;;;;4995271;28;20505;-63
2021/03/06 10:03:53;;;;;;;8.57;7.77;;;;;;;;;;4878371;29;20484;-63
2021/03/06 10:06:22;;;;;;;8.03;7.33;;;;;;;;;;4887210;28;20507;-63
2021/03/06 10:08:58;;;;;;;9.70;8.43;;;;;;;;;;4958155;28;20512;-63
2021/03/06 10:11:28;;;;;;;10.17;7.60;;;;;;;;;;4997257;28;20457;-65
2021/03/06 10:13:56;;;;;;;9.73;8.00;;;;;;;;;;4996531;28;20485;-64
2021/03/06 10:16:24;;;;;;;8.83;7.53;;;;;;;;;;4997397;28;20442;-64
2021/03/06 10:18:51;;;;;;;10.80;8.30;;;;;;;;;;4997885;28;20474;-64
2021/03/06 10:21:20;;;;;;;9.77;8.57;;;;;;;;;;5005995;28;20442;-64
2021/03/06 10:23:51;;;;;;;11.03;8.27;;;;;;;;;;5005887;28;20470;-64
2021/03/06 10:26:25;;;;;;;8.83;8.03;;;;;;;;;;4982433;28;20532;-63
2021/03/06 10:28:54;;;;;;;9.10;8.20;;;;;;;;;;4988197;28;20456;-63
2021/03/06 10:31:33;;;;;;;7.57;6.87;;;;;;;;;;4987365;28;20515;-63
2021/03/06 10:34:00;;;;;;;8.83;7.93;;;;;;;;;;5000101;28;20497;-64
2021/03/06 10:36:27;;;;;;;9.50;7.30;;;;;;;;;;5009133;28;20443;-64
2021/03/06 10:39:14;;;;;;;10.80;7.53;;;;;;;;;;5009941;28;20451;-64
2021/03/06 10:41:40;;;;;;;6.53;5.83;;;;;;;;;;5005035;28;20470;-64
2021/03/06 10:44:07;;;;;;;6.83;6.03;;;;;;;;;;5002465;28;20455;-64
2021/03/06 10:46:35;;;;;;;6.70;5.57;;;;;;;;;;5013431;28;20873;-64
2021/03/06 10:49:02;;;;;;;6.70;5.60;;;;;;;;;;5016354;28;20446;-64
2021/03/06 10:51:41;;;;;;;10.07;9.07;;;;;;;;;;5015845;28;20445;-64
2021/03/06 10:54:08;;;;;;;6.30;5.80;;;;;;;;;;5009468;28;20459;-63
2021/03/06 10:56:36;;;;;;;6.40;5.80;;;;;;;;;;4992620;28;20808;-64
2021/03/06 10:59:03;;;;;;;10.90;5.87;;;;;;;;;;4974662;28;20509;-63
2021/03/06 11:01:32;;;;;;;9.03;6.47;;;;;;;;;;4974052;28;20456;-64
2021/03/06 11:03:59;;;;;;;8.70;6.07;;;;;;;;;;4974173;28;20506;-64
2021/03/06 11:06:26;;;;;;;8.13;6.23;;;;;;;;;;4979841;28;20880;-64
2021/03/06 11:09:00;;;;;;;7.97;6.27;;;;;;;;;;4973998;28;20459;-64
2021/03/06 11:11:26;;;;;;;6.47;5.83;;;;;;;;;;4973676;28;20958;-64
2021/03/06 11:13:54;;;;;;;6.53;5.87;;;;;;;;;;4972988;28;20483;-64
2021/03/06 11:16:36;;;;;;;7.50;5.30;;;;;;;;;;4973555;28;20974;-64
2021/03/06 11:19:03;;;;;;;7.40;4.90;;;;;;;;;;4973930;28;20455;-63
2021/03/06 11:21:29;;;;;;;4.73;4.13;;;;;;;;;;4973697;28;20455;-64
2021/03/06 11:23:56;;;;;;;5.07;4.13;;;;;;;;;;4973698;28;20811;-64
2021/03/06 11:26:23;;;;;;;5.93;4.40;;;;;;;;;;4973054;28;20499;-64
2021/03/06 11:28:49;;;;;;;6.30;4.43;;;;;;;;;;4973426;28;20458;-64
2021/03/06 11:31:17;;;;;;;7.27;4.57;;;;;;;;;;4989038;28;20463;-64
2021/03/06 11:33:43;;;;;;;4.90;4.40;;;;;;;;;;4992475;28;20536;-64
2021/03/06 11:36:10;;;;;;;5.83;4.37;;;;;;;;;;4992527;28;20442;-64
2021/03/06 11:38:37;;;;;;;5.47;4.87;;;;;;;;;;4992390;28;20807;-64
2021/03/06 11:41:03;;;;;;;7.57;5.03;;;;;;;;;;4984078;28;20467;-63
2021/03/06 11:43:30;;;;;;;5.63;4.80;;;;;;;;;;4982723;28;20469;-64
2021/03/06 11:45:57;;;;;;;6.20;5.70;;;;;;;;;;4984842;28;20498;-64
2021/03/06 11:48:25;;;;;;;6.37;5.13;;;;;;;;;;4973718;28;20567;-64
2021/03/06 11:50:52;;;;;;;7.80;7.00;;;;;;;;;;4972818;28;20542;-64
2021/03/06 11:53:18;;;;;;;8.13;7.30;;;;;;;;;;4976488;28;20467;-63
2021/03/06 11:55:45;;;;;;;9.17;8.30;;;;;;;;;;4976749;28;20454;-64
2021/03/06 11:58:12;;;;;;;8.77;8.13;;;;;;;;;;4976712;28;20459;-64
2021/03/06 12:00:38;;;;;;;8.63;7.90;;;;;;;;;;4977017;28;20550;-62
2021/03/06 12:03:05;;;;;;;10.30;8.90;;;;;;;;;;4968813;28;20475;-62
2021/03/06 12:05:33;;;;;;;9.00;8.20;;;;;;;;;;4976583;28;20931;-62
2021/03/06 12:08:00;;;;;;;11.10;8.60;;;;;;;;;;4975431;28;20554;-63
2021/03/06 12:10:28;;;;;;;9.50;8.00;;;;;;;;;;4992493;28;20459;-62
2021/03/06 12:12:55;;;;;;;8.30;7.60;;;;;;;;;;4987789;28;20510;-63
2021/03/06 12:15:21;;;;;;;7.23;6.53;;;;;;;;;;4973734;28;20647;-63
2021/03/06 12:17:48;;;;;;;6.37;5.87;;;;;;;;;;4987249;28;20737;-62
2021/03/06 12:20:16;;;;;;;4.80;4.40;;;;;;;;;;4995273;28;20988;-62
2021/03/06 12:22:43;;;;;;;7.00;4.37;;;;;;;;;;4978029;28;20545;-63
2021/03/06 12:25:10;;;;;;;5.23;3.97;;;;;;;;;;4986886;28;20460;-65
2021/03/06 12:27:37;;;;;;;6.53;3.90;;;;;;;;;;4995412;28;20565;-64
2021/03/06 12:30:06;;;;;;;5.00;3.60;;;;;;;;;;4995515;28;20450;-65
2021/03/06 12:32:32;;;;;;;7.43;3.67;;;;;;;;;;4995610;28;20473;-65
2021/03/06 12:34:59;;;;;;;4.93;3.57;;;;;;;;;;4986042;28;20466;-63
2021/03/06 12:37:26;;;;;;;3.83;3.13;;;;;;;;;;4983719;28;20492;-63
2021/03/06 12:39:53;;;;;;;6.53;3.50;;;;;;;;;;4989557;28;20461;-63
2021/03/06 12:42:20;;;;;;;4.17;3.30;;;;;;;;;;4995746;28;20470;-63
2021/03/06 12:44:46;;;;;;;4.67;3.03;;;;;;;;;;4995112;28;20954;-63
2021/03/06 12:47:13;;;;;;;8.23;3.20;;;;;;;;;;4994946;28;20482;-63
2021/03/06 12:49:39;;;;;;;4.07;2.90;;;;;;;;;;4982130;28;20831;-63
2021/03/06 12:52:06;;;;;;;5.50;3.30;;;;;;;;;;4975699;28;20467;-64
2021/03/06 12:54:33;;;;;;;6.47;3.00;;;;;;;;;;4975817;28;20451;-63
2021/03/06 12:57:00;;;;;;;6.00;3.70;;;;;;;;;;4975670;28;20443;-64
2021/03/06 12:59:27;;;;;;;6.63;3.63;;;;;;;;;;4975330;28;20444;-63
2021/03/06 13:01:55;;;;;;;6.13;3.10;;;;;;;;;;4975224;28;20452;-63
2021/03/06 13:04:21;;;;;;;5.37;2.80;;;;;;;;;;4978154;28;20469;-62
2021/03/06 13:06:48;;;;;;;3.63;3.13;;;;;;;;;;4973786;28;20490;-66
2021/03/06 13:09:15;;;;;;;6.53;3.33;;;;;;;;;;4975989;28;20475;-64
2021/03/06 13:11:41;;;;;;;4.50;2.93;;;;;;;;;;4994257;28;20501;-62
2021/03/06 13:14:09;;;;;;;5.23;2.67;;;;;;;;;;4988215;28;20501;-63
2021/03/06 13:16:36;;;;;;;3.43;2.50;;;;;;;;;;4979282;28;20456;-62
2021/03/06 13:19:02;;;;;;;3.87;2.40;;;;;;;;;;4975311;28;20459;-62
2021/03/06 13:21:29;;;;;;;3.17;2.33;;;;;;;;;;4996449;23;20529;-63
2021/03/06 13:23:56;;;;;;;3.03;2.30;;;;;;;;;;4977767;28;20443;-63
2021/03/06 13:26:23;;;;;;;2.33;2.00;;;;;;;;;;4975229;28;20486;-63
2021/03/06 13:28:50;;;;;;;3.80;2.47;;;;;;;;;;4974360;28;20455;-63
2021/03/06 13:31:17;;;;;;;2.57;2.27;;;;;;;;;;4956700;28;21071;-63
2021/03/06 13:33:44;;;;;;;4.43;2.60;;;;;;;;;;4936396;29;20457;-63
2021/03/06 13:36:11;;;;;;;2.93;2.03;;;;;;;;;;4955419;28;20452;-63
2021/03/06 13:38:38;;;;;;;3.73;2.50;;;;;;;;;;4955440;29;20479;-63
2021/03/06 13:41:05;;;;;;;6.33;1.40;;;;;;;;;;4957342;29;20563;-66
2021/03/06 13:43:31;;;;;;;2.10;1.83;;;;;;;;;;4955617;28;20469;-63
2021/03/06 13:45:58;;;;;;;2.80;1.70;;;;;;;;;;4962543;28;20484;-63
2021/03/06 13:48:26;;;;;;;3.70;1.90;;;;;;;;;;4955199;28;20473;-67
2021/03/06 13:50:52;;;;;;;3.20;1.80;;;;;;;;;;4955130;28;20811;-63
2021/03/06 13:53:19;;;;;;;3.70;2.10;;;;;;;;;;4964150;28;20455;-63
2021/03/06 13:55:46;;;;;;;2.70;2.10;;;;;;;;;;4955582;28;20885;-63
2021/03/06 13:58:13;;;;;;;2.73;2.10;;;;;;;;;;4957537;29;20448;-63
2021/03/06 14:00:39;;;;;;;2.60;1.80;;;;;;;;;;4957680;28;20472;-66
2021/03/06 14:03:06;;;;;;;3.67;1.70;;;;;;;;;;4971813;28;20460;-66
2021/03/06 14:05:34;;;;;;;3.50;1.30;;;;;;;;;;4957008;28;20458;-66
2021/03/06 14:08:00;;;;;;;2.07;1.20;;;;;;;;;;4955565;28;20512;-66
2021/03/06 14:10:27;;;;;;;2.53;1.33;;;;;;;;;;4957580;28;20468;-66
2021/03/06 14:12:55;;;;;;;3.53;1.90;;;;;;;;;;4955062;28;20524;-65
2021/03/06 14:15:23;;;;;;;3.70;1.90;;;;;;;;;;4966656;28;20483;-65
2021/03/06 14:17:49;;;;;;;3.13;2.00;;;;;;;;;;4959798;29;20449;-65
2021/03/06 14:20:17;;;;;;;4.00;2.33;;;;;;;;;;4965350;28;20866;-65
2021/03/06 14:22:44;;;;;;;3.77;1.93;;;;;;;;;;4965515;28;20518;-65
2021/03/06 14:25:12;;;;;;;3.97;2.30;;;;;;;;;;4954297;29;20479;-65
2021/03/06 14:27:38;;;;;;;2.90;2.10;;;;;;;;;;4965897;28;20483;-65
2021/03/06 14:30:06;;;;;;;3.30;2.10;;;;;;;;;;4956938;28;20485;-62
2021/03/06 14:32:32;;;;;;;2.33;1.90;;;;;;;;;;4963111;28;20456;-64
2021/03/06 14:35:01;;;;;;;2.57;1.90;;;;;;;;;;4954420;28;20496;-64
2021/03/06 14:37:28;;;;;;;3.20;2.10;;;;;;;;;;4954805;28;20458;-65
2021/03/06 14:39:55;;;;;;;4.10;2.37;;;;;;;;;;4954174;29;20476;-64
2021/03/06 14:42:22;;;;;;;3.20;2.30;;;;;;;;;;4956652;28;20462;-64
2021/03/06 14:44:48;;;;;;;4.27;2.53;;;;;;;;;;4958686;28;20449;-64